Oyhat, Washington
Current Conditions -  °F | °C
As of 1:09 AM on Thursday 18 Dec 2014 (Local Time) from KHQM Reporting Station
Overcast Overcast  
Wind Chill: 43°   Ceiling: 6500
Heat Index: 46°   Visibility: 7mi
Dew Point: 45°   Wind: 6mph
Humidity: 96%   Direction: 50°NE
Pressure: 29.91"   Gusts: NA
Location:  47.0202°N, 123.878°W
Report Text: KHQM 180909Z AUTO 05005KT 7SM SCT009 BKN065 OVC075 08/07 A2991 RMK AO2 T00780072
Loading
Personal Weather Stations






























Interactive Weather Map New forecast layout! Learn more

10-Day Weather Forecast

Advertisements
Track Severe Weather on mobile